Time;durP1;ratioP1;P1;durP2;ratioP2;P2;SDS_P1;SDS_P2;PMS_P1;PMS_P2;Temp;Humidity;BMP_temperature;BMP_pressure;BME280_temperature;BME280_humidity;BME280_pressure;Samples;Min_cycle;Max_cycle;Signal;HPM_P1;HPM_P2
2023/08/05 00:00:36;;;;;;;9.50;4.75;;;;;;;15.01;98.21;101659.56;5027611;28;20033;-69
2023/08/05 00:03:01;;;;;;;10.52;4.43;;;;;;;15.00;98.53;101642.69;5021738;28;20056;-69
2023/08/05 00:05:27;;;;;;;6.78;4.70;;;;;;;14.98;98.25;101647.38;5027598;28;20025;-69
2023/08/05 00:07:52;;;;;;;9.23;4.60;;;;;;;14.96;98.58;101641.38;5019758;28;20113;-69
2023/08/05 00:10:17;;;;;;;10.13;4.78;;;;;;;15.00;98.47;101641.84;5027666;28;20029;-69
2023/08/05 00:12:43;;;;;;;10.05;4.60;;;;;;;14.97;98.83;101643.06;5024856;28;20031;-69
2023/08/05 00:15:08;;;;;;;8.70;4.82;;;;;;;14.96;98.90;101635.22;5027772;28;20037;-69
2023/08/05 00:17:34;;;;;;;12.25;5.13;;;;;;;14.98;99.39;101628.66;5027553;28;20037;-69
2023/08/05 00:19:59;;;;;;;7.00;5.00;;;;;;;14.98;99.25;101625.16;5026378;28;20037;-69
2023/08/05 00:22:24;;;;;;;6.75;4.63;;;;;;;14.99;99.29;101635.69;5025388;28;20021;-69
2023/08/05 00:24:49;;;;;;;12.73;5.10;;;;;;;14.97;99.44;101632.34;5027537;28;20029;-69
2023/08/05 00:27:15;;;;;;;8.73;4.57;;;;;;;14.97;99.66;101629.69;5016237;28;20535;-69
2023/08/05 00:29:40;;;;;;;9.27;5.30;;;;;;;14.95;99.44;101621.00;5021132;28;20029;-69
2023/08/05 00:32:05;;;;;;;10.82;5.28;;;;;;;14.92;99.63;101624.03;5020834;28;20495;-69
2023/08/05 00:34:31;;;;;;;9.95;4.88;;;;;;;14.92;99.65;101615.19;5020204;28;20033;-69
2023/08/05 00:36:56;;;;;;;9.55;5.03;;;;;;;14.91;99.86;101611.69;5021430;28;20018;-69
2023/08/05 00:39:21;;;;;;;7.82;5.05;;;;;;;14.92;100.00;101613.34;5029617;28;20103;-69
2023/08/05 00:41:46;;;;;;;7.15;5.05;;;;;;;14.92;100.00;101599.97;5024264;28;20028;-69
2023/08/05 00:44:12;;;;;;;9.18;5.03;;;;;;;14.92;100.00;101613.34;5026691;28;20541;-69
2023/08/05 00:46:37;;;;;;;7.13;5.53;;;;;;;14.96;100.00;101617.31;5025847;28;20074;-69
2023/08/05 00:49:03;;;;;;;10.88;5.13;;;;;;;15.06;99.91;101603.72;5021789;28;20625;-69
2023/08/05 00:51:29;;;;;;;8.32;5.10;;;;;;;15.07;99.70;101602.69;5025664;28;20087;-69
2023/08/05 00:53:54;;;;;;;8.55;5.40;;;;;;;15.04;99.72;101603.06;5027197;28;20495;-69
2023/08/05 00:56:19;;;;;;;8.07;4.75;;;;;;;14.99;99.33;101592.88;5024984;28;20025;-69
2023/08/05 00:58:45;;;;;;;8.10;5.10;;;;;;;15.08;99.25;101585.63;5028121;28;20032;-69
2023/08/05 01:01:10;;;;;;;9.88;4.88;;;;;;;15.10;99.62;101581.75;5027051;28;20533;-69
2023/08/05 01:03:36;;;;;;;9.05;4.85;;;;;;;15.15;99.89;101590.06;5031762;28;20021;-69
2023/08/05 01:06:04;;;;;;;7.80;4.70;;;;;;;15.19;99.71;101591.34;5023293;28;20027;-69
2023/08/05 01:08:30;;;;;;;7.38;4.78;;;;;;;15.22;99.74;101592.00;5025707;28;20036;-69
2023/08/05 01:10:56;;;;;;;6.93;4.75;;;;;;;15.15;99.32;101591.91;5025520;28;20040;-69
2023/08/05 01:13:21;;;;;;;8.95;4.93;;;;;;;15.18;99.13;101580.84;5031395;28;20108;-69
2023/08/05 01:15:46;;;;;;;11.45;5.20;;;;;;;15.19;99.21;101577.97;5028595;28;20061;-69
2023/08/05 01:18:16;;;;;;;7.80;5.70;;;;;;;15.17;99.43;101576.50;5031545;28;20025;-69
2023/08/05 01:20:46;;;;;;;7.45;5.05;;;;;;;15.15;99.12;101575.84;5023325;28;20103;-69
2023/08/05 01:23:18;;;;;;;7.32;4.70;;;;;;;15.10;99.13;101572.91;5030737;28;20410;-69
2023/08/05 01:25:45;;;;;;;8.38;4.85;;;;;;;15.03;99.08;101585.31;5024374;28;20028;-69
2023/08/05 01:28:11;;;;;;;8.88;5.32;;;;;;;14.91;99.02;101574.25;5024505;28;20021;-69
2023/08/05 01:30:37;;;;;;;7.18;4.07;;;;;;;14.72;98.74;101572.06;5033920;28;20041;-69
2023/08/05 01:33:02;;;;;;;7.18;4.15;;;;;;;14.57;98.32;101578.19;5027799;28;20025;-70
2023/08/05 01:35:28;;;;;;;6.50;3.90;;;;;;;14.46;98.45;101575.13;5022336;28;20059;-69
2023/08/05 01:37:53;;;;;;;9.23;5.05;;;;;;;14.39;99.07;101579.47;5027081;28;20017;-69
2023/08/05 01:40:19;;;;;;;10.60;4.88;;;;;;;14.28;99.47;101578.03;5026047;28;20051;-69
2023/08/05 01:42:44;;;;;;;8.70;5.85;;;;;;;14.26;99.88;101577.38;5029193;28;20025;-68
2023/08/05 01:45:09;;;;;;;7.55;5.47;;;;;;;14.21;100.00;101577.91;5023317;28;20537;-69
2023/08/05 01:47:35;;;;;;;11.57;6.07;;;;;;;14.12;100.00;101573.59;5029570;28;20021;-69
2023/08/05 01:50:00;;;;;;;9.55;5.68;;;;;;;14.06;100.00;101574.31;5022130;28;20041;-69
2023/08/05 01:52:25;;;;;;;17.05;5.97;;;;;;;14.09;100.00;101581.13;5021109;28;20045;-69
2023/08/05 01:54:50;;;;;;;9.60;5.75;;;;;;;14.06;100.00;101578.81;5030079;28;20025;-69
2023/08/05 01:57:16;;;;;;;8.85;5.97;;;;;;;14.02;100.00;101577.50;5026492;28;20471;-69
2023/08/05 01:59:41;;;;;;;9.40;5.65;;;;;;;13.93;100.00;101574.06;5025740;28;20021;-68
2023/08/05 02:02:06;;;;;;;9.18;5.50;;;;;;;13.86;100.00;101584.59;5024237;28;20026;-69
2023/08/05 02:04:32;;;;;;;8.65;6.00;;;;;;;13.80;100.00;101573.78;5030192;28;20019;-68
2023/08/05 02:06:57;;;;;;;7.03;5.70;;;;;;;13.72;100.00;101571.16;5022953;28;20402;-68
2023/08/05 02:09:22;;;;;;;7.55;5.60;;;;;;;13.74;100.00;101572.63;5020782;28;20026;-69
2023/08/05 02:11:47;;;;;;;7.00;5.78;;;;;;;13.72;100.00;101573.81;5025731;28;20017;-69
2023/08/05 02:14:13;;;;;;;9.80;6.35;;;;;;;13.71;100.00;101572.16;5024717;28;20037;-69
2023/08/05 02:16:38;;;;;;;12.07;6.72;;;;;;;13.70;100.00;101575.81;5018729;28;20614;-69
2023/08/05 02:19:03;;;;;;;9.75;6.88;;;;;;;13.69;100.00;101577.66;5023712;28;20037;-69
2023/08/05 02:21:29;;;;;;;11.05;7.07;;;;;;;13.71;100.00;101567.66;5019653;28;20026;-69
2023/08/05 02:23:54;;;;;;;12.40;6.93;;;;;;;13.69;100.00;101571.50;5020494;28;20029;-69
2023/08/05 02:26:20;;;;;;;11.70;6.68;;;;;;;13.70;100.00;101568.66;5020170;28;20025;-69
2023/08/05 02:28:46;;;;;;;11.10;7.13;;;;;;;13.70;100.00;101568.66;5026198;28;20034;-69
2023/08/05 02:31:12;;;;;;;8.55;6.80;;;;;;;13.74;100.00;101558.47;5020930;28;20026;-69
2023/08/05 02:33:37;;;;;;;9.00;6.93;;;;;;;13.78;100.00;101549.91;5026146;28;20018;-68
2023/08/05 02:36:03;;;;;;;10.88;7.72;;;;;;;13.79;100.00;101548.09;5026609;28;20028;-69
2023/08/05 02:38:29;;;;;;;11.05;6.80;;;;;;;13.75;100.00;101544.09;5023484;28;20072;-69
2023/08/05 02:40:55;;;;;;;9.40;6.78;;;;;;;13.74;100.00;101545.09;5021099;28;20403;-68
2023/08/05 02:43:21;;;;;;;9.00;6.65;;;;;;;13.82;100.00;101539.72;5029749;28;20022;-69
2023/08/05 02:45:56;;;;;;;11.65;7.25;;;;;;;13.83;100.00;101552.06;5022116;28;20022;-68
2023/08/05 02:48:23;;;;;;;10.63;7.25;;;;;;;13.79;100.00;101559.59;5021998;28;20089;-68
2023/08/05 02:50:49;;;;;;;10.23;7.38;;;;;;;13.79;100.00;101553.44;5025000;28;20056;-69
2023/08/05 02:53:15;;;;;;;12.10;7.10;;;;;;;13.80;100.00;101550.56;5027690;28;20067;-68
2023/08/05 02:55:40;;;;;;;12.95;7.72;;;;;;;13.80;100.00;101547.06;5024014;28;20053;-68
2023/08/05 02:58:06;;;;;;;12.10;7.57;;;;;;;13.82;100.00;101548.56;5021646;28;20467;-68
2023/08/05 03:00:31;;;;;;;10.00;6.75;;;;;;;13.78;100.00;101543.75;5023355;28;20044;-69
2023/08/05 03:02:57;;;;;;;11.80;7.20;;;;;;;13.78;100.00;101541.91;5027996;28;20034;-69
2023/08/05 03:05:22;;;;;;;11.98;7.18;;;;;;;13.85;100.00;101540.19;5022011;28;20021;-69
2023/08/05 03:07:47;;;;;;;10.32;6.65;;;;;;;13.91;100.00;101536.84;5022885;28;20034;-69
2023/08/05 03:10:13;;;;;;;9.25;6.80;;;;;;;13.96;100.00;101528.31;5027673;28;20049;-69
2023/08/05 03:12:38;;;;;;;11.30;7.22;;;;;;;14.00;100.00;101526.13;5025386;28;20033;-69
2023/08/05 03:15:04;;;;;;;8.80;7.30;;;;;;;14.02;100.00;101527.59;5027877;28;20064;-69
2023/08/05 03:17:29;;;;;;;11.05;7.63;;;;;;;14.00;100.00;101518.09;5020017;28;20021;-69
2023/08/05 03:19:54;;;;;;;10.98;8.30;;;;;;;14.03;100.00;101525.75;5025270;28;20036;-69
2023/08/05 03:22:20;;;;;;;14.63;8.07;;;;;;;14.00;100.00;101516.28;5021264;28;20037;-69
2023/08/05 03:24:45;;;;;;;10.13;7.93;;;;;;;14.01;100.00;101514.44;5025313;28;20033;-68
2023/08/05 03:27:10;;;;;;;10.10;7.45;;;;;;;14.00;100.00;101510.09;5018825;28;20475;-69
2023/08/05 03:29:35;;;;;;;9.40;7.70;;;;;;;14.03;100.00;101509.75;5024358;28;20078;-69
2023/08/05 03:32:01;;;;;;;11.02;7.32;;;;;;;14.05;100.00;101502.38;5021109;28;20032;-69
2023/08/05 03:34:26;;;;;;;9.88;7.28;;;;;;;14.06;100.00;101504.03;5020727;28;20376;-69
2023/08/05 03:36:52;;;;;;;10.75;7.68;;;;;;;14.12;100.00;101497.97;5026001;28;20017;-69
2023/08/05 03:39:18;;;;;;;9.55;7.38;;;;;;;14.12;100.00;101503.31;5022112;28;20033;-69
2023/08/05 03:41:45;;;;;;;15.45;7.72;;;;;;;14.15;100.00;101497.63;5018491;28;20049;-69
2023/08/05 03:44:10;;;;;;;10.77;7.93;;;;;;;14.15;100.00;101497.63;5022928;28;20427;-69
2023/08/05 03:46:37;;;;;;;12.82;8.07;;;;;;;14.17;100.00;101493.78;5026165;28;20071;-69
2023/08/05 03:49:03;;;;;;;11.85;8.60;;;;;;;14.18;100.00;101483.94;5025515;28;20407;-69
2023/08/05 03:51:28;;;;;;;13.25;8.50;;;;;;;14.16;100.00;101484.09;5025406;28;20508;-69
2023/08/05 03:53:53;;;;;;;10.05;8.18;;;;;;;14.15;100.00;101476.25;5023377;28;20119;-69
2023/08/05 03:56:22;;;;;;;8.82;7.68;;;;;;;14.14;100.00;101474.59;5027688;28;20036;-69
2023/08/05 03:58:47;;;;;;;12.27;8.00;;;;;;;14.13;100.00;101468.41;5021186;28;20028;-69
2023/08/05 04:01:16;;;;;;;13.13;8.15;;;;;;;14.12;100.00;101472.09;5023987;28;21931;-69
2023/08/05 04:03:42;;;;;;;13.68;8.82;;;;;;;14.05;100.00;101470.34;5023836;28;20033;-69
2023/08/05 04:06:07;;;;;;;12.63;8.40;;;;;;;14.02;100.00;101474.19;5020549;28;20027;-68
2023/08/05 04:08:33;;;;;;;14.10;8.43;;;;;;;14.03;100.00;101472.34;5023135;28;20037;-69
2023/08/05 04:10:58;;;;;;;17.08;8.85;;;;;;;14.04;100.00;101474.00;5026633;28;20490;-69
2023/08/05 04:13:26;;;;;;;12.82;9.18;;;;;;;14.02;100.00;101463.50;5026430;28;20037;-69
2023/08/05 04:15:53;;;;;;;13.73;9.65;;;;;;;14.01;100.00;101477.03;5026044;28;20486;-69
2023/08/05 04:18:19;;;;;;;11.55;9.40;;;;;;;13.92;100.00;101477.09;5024532;28;20030;-69
2023/08/05 04:20:46;;;;;;;11.52;8.63;;;;;;;13.86;100.00;101476.94;5014038;28;20038;-69
2023/08/05 04:23:15;;;;;;;12.35;8.95;;;;;;;13.82;100.00;101470.31;5023613;28;20029;-69
2023/08/05 04:25:43;;;;;;;13.88;9.20;;;;;;;13.78;100.00;101452.97;5023503;28;20576;-68
2023/08/05 04:28:11;;;;;;;12.95;9.18;;;;;;;13.83;100.00;101443.44;5025251;28;20030;-68
2023/08/05 04:30:36;;;;;;;12.82;9.88;;;;;;;13.89;100.00;101441.91;5018902;28;20021;-69
2023/08/05 04:33:02;;;;;;;15.45;9.90;;;;;;;13.95;100.00;101433.19;5026228;28;20104;-69
2023/08/05 04:35:27;;;;;;;13.80;10.40;;;;;;;13.99;100.00;101431.00;5023763;28;20092;-69
2023/08/05 04:37:52;;;;;;;16.05;9.88;;;;;;;14.03;100.00;101426.94;5026778;28;20037;-69
2023/08/05 04:40:17;;;;;;;15.00;9.57;;;;;;;14.06;100.00;101423.91;5019301;28;20511;-69
2023/08/05 04:42:43;;;;;;;13.55;9.50;;;;;;;14.10;100.00;101431.38;5025677;28;20110;-69
2023/08/05 04:45:09;;;;;;;14.00;9.77;;;;;;;14.15;100.00;101426.34;5016830;28;20026;-69
2023/08/05 04:47:34;;;;;;;13.32;10.00;;;;;;;14.17;100.00;101423.50;5027792;28;20025;-69
2023/08/05 04:49:59;;;;;;;12.95;9.70;;;;;;;14.20;100.00;101412.47;5018924;28;20021;-68
2023/08/05 04:52:24;;;;;;;18.38;9.82;;;;;;;14.21;100.00;101422.13;5021704;28;20026;-69
2023/08/05 04:54:50;;;;;;;14.38;9.20;;;;;;;14.25;100.00;101415.41;5017313;28;20022;-68
2023/08/05 04:57:16;;;;;;;15.15;9.82;;;;;;;14.26;100.00;101419.75;5024573;28;20394;-68
2023/08/05 04:59:42;;;;;;;11.50;9.02;;;;;;;14.26;100.00;101430.44;5019245;28;20071;-69
2023/08/05 05:02:07;;;;;;;12.23;9.80;;;;;;;14.23;100.00;101422.78;5026538;28;20029;-69
2023/08/05 05:04:32;;;;;;;14.20;9.55;;;;;;;14.22;100.00;101424.63;5017787;28;20371;-69
2023/08/05 05:06:58;;;;;;;14.68;10.10;;;;;;;14.20;100.00;101421.31;5023849;28;20050;-69
2023/08/05 05:09:23;;;;;;;15.18;10.43;;;;;;;14.18;100.00;101425.16;5018254;28;20017;-69
2023/08/05 05:11:49;;;;;;;16.65;9.98;;;;;;;14.15;100.00;101414.81;5027293;28;20587;-68
2023/08/05 05:14:14;;;;;;;16.55;10.32;;;;;;;14.17;100.00;101413.66;5023396;28;20057;-68
2023/08/05 05:16:39;;;;;;;11.95;9.77;;;;;;;14.20;100.00;101413.28;5023148;28;20010;-69
2023/08/05 05:19:04;;;;;;;15.90;10.50;;;;;;;14.20;100.00;101415.97;5024923;28;20052;-69
2023/08/05 05:21:30;;;;;;;15.32;9.80;;;;;;;14.24;100.00;101405.75;5022346;28;20104;-68
2023/08/05 05:23:56;;;;;;;13.95;10.05;;;;;;;14.28;100.00;101409.72;5024912;28;20065;-68
2023/08/05 05:26:21;;;;;;;14.38;10.50;;;;;;;14.26;100.00;101409.91;5019685;28;20443;-69
2023/08/05 05:28:46;;;;;;;14.45;10.82;;;;;;;14.26;100.00;101415.25;5023392;28;20030;-68
2023/08/05 05:31:11;;;;;;;14.32;10.38;;;;;;;14.24;100.00;101421.78;5025170;28;20645;-69
2023/08/05 05:33:37;;;;;;;15.70;10.38;;;;;;;14.13;100.00;101411.50;5022617;28;20045;-68
2023/08/05 05:36:02;;;;;;;16.33;10.85;;;;;;;14.07;100.00;101398.88;5031065;28;20040;-68
2023/08/05 05:38:28;;;;;;;15.50;11.10;;;;;;;14.01;100.00;101399.59;5020839;28;20429;-69
2023/08/05 05:40:54;;;;;;;18.55;11.45;;;;;;;14.06;100.00;101402.56;5023957;28;20026;-68
2023/08/05 05:43:19;;;;;;;17.20;11.30;;;;;;;14.03;100.00;101400.25;5026639;28;20037;-69
2023/08/05 05:45:46;;;;;;;16.42;11.57;;;;;;;13.95;100.00;101393.97;5026254;28;20029;-68
2023/08/05 05:48:11;;;;;;;18.38;12.18;;;;;;;13.93;100.00;101389.81;5023914;28;20120;-69
2023/08/05 05:50:43;;;;;;;18.58;12.05;;;;;;;13.88;100.00;101390.34;5024312;28;20171;-68
2023/08/05 05:53:08;;;;;;;18.10;12.18;;;;;;;13.88;100.00;101397.53;5020970;28;20052;-69
2023/08/05 05:55:34;;;;;;;19.40;11.63;;;;;;;13.86;100.00;101386.19;5025457;28;20729;-69
2023/08/05 05:57:59;;;;;;;17.77;12.70;;;;;;;13.85;100.00;101385.34;5025988;28;20021;-69
2023/08/05 06:00:24;;;;;;;21.08;12.00;;;;;;;13.87;100.00;101382.50;5023354;28;20083;-68
2023/08/05 06:02:50;;;;;;;17.67;12.20;;;;;;;13.90;100.00;101382.16;5025818;28;20119;-69
2023/08/05 06:05:16;;;;;;;22.35;13.15;;;;;;;13.95;100.00;101388.63;5023938;28;20029;-69
2023/08/05 06:07:41;;;;;;;16.75;12.63;;;;;;;14.01;100.00;101383.56;5024624;28;20018;-68
2023/08/05 06:10:07;;;;;;;19.35;12.77;;;;;;;13.99;100.00;101378.41;5022591;28;20037;-68
2023/08/05 06:12:36;;;;;;;17.83;12.85;;;;;;;14.08;100.00;101379.16;5022860;28;20506;-68
2023/08/05 06:15:01;;;;;;;19.33;12.82;;;;;;;14.19;100.00;101381.41;5023024;28;20018;-69
2023/08/05 06:17:27;;;;;;;18.30;13.20;;;;;;;14.29;100.00;101387.31;5023747;28;20355;-69
2023/08/05 06:19:53;;;;;;;21.50;13.52;;;;;;;14.33;100.00;101385.13;5026154;28;20029;-68
2023/08/05 06:22:18;;;;;;;22.35;13.10;;;;;;;14.41;100.00;101385.88;5019647;28;20055;-69
2023/08/05 06:24:43;;;;;;;20.70;14.02;;;;;;;14.47;100.00;101392.38;5025212;28;20100;-69
2023/08/05 06:27:09;;;;;;;18.05;13.18;;;;;;;14.49;100.00;101383.16;5025447;28;20129;-68
2023/08/05 06:29:34;;;;;;;19.13;13.38;;;;;;;14.53;100.00;101384.44;5026098;28;20776;-68
2023/08/05 06:31:59;;;;;;;15.75;12.68;;;;;;;14.57;100.00;101372.38;5022099;28;20054;-68
2023/08/05 06:34:24;;;;;;;18.55;12.93;;;;;;;14.62;100.00;101376.34;5027642;28;20033;-68
2023/08/05 06:36:50;;;;;;;19.92;13.68;;;;;;;14.71;100.00;101375.22;5018816;28;20014;-69
2023/08/05 06:39:15;;;;;;;17.80;13.57;;;;;;;14.73;100.00;101371.34;5027881;28;20078;-69
2023/08/05 06:41:40;;;;;;;21.80;13.13;;;;;;;14.76;100.00;101378.19;5030096;28;20053;-69
2023/08/05 06:44:05;;;;;;;19.48;13.10;;;;;;;14.79;100.00;101383.16;5027053;28;20029;-69
2023/08/05 06:46:31;;;;;;;17.65;13.00;;;;;;;14.78;100.00;101374.31;5020389;28;20401;-68
2023/08/05 06:48:57;;;;;;;19.10;13.65;;;;;;;14.79;100.00;101375.97;5024809;28;20037;-69
2023/08/05 06:51:23;;;;;;;17.50;12.52;;;;;;;14.84;100.00;101372.75;5023527;28;20021;-69
2023/08/05 06:53:48;;;;;;;22.95;13.15;;;;;;;14.75;100.00;101347.13;5022528;28;20112;-69
2023/08/05 06:56:14;;;;;;;21.17;13.50;;;;;;;14.90;100.00;101355.94;5023139;28;20116;-69
2023/08/05 06:58:39;;;;;;;16.85;13.07;;;;;;;14.77;100.00;101329.88;5023718;28;20479;-69
2023/08/05 07:01:05;;;;;;;17.70;13.95;;;;;;;15.05;100.00;101362.13;5025182;28;20063;-69
2023/08/05 07:03:30;;;;;;;18.15;13.13;;;;;;;15.10;100.00;101354.38;5029484;28;20021;-69
2023/08/05 07:05:56;;;;;;;18.17;13.45;;;;;;;15.21;100.00;101357.56;5020898;28;20105;-69
2023/08/05 07:08:23;;;;;;;17.60;13.35;;;;;;;15.28;100.00;101348.59;5021693;28;20120;-69
2023/08/05 07:10:56;;;;;;;20.30;13.90;;;;;;;15.43;100.00;101345.88;5024288;28;20025;-69
2023/08/05 07:13:21;;;;;;;17.20;13.77;;;;;;;15.55;100.00;101347.03;5028049;28;20494;-69
2023/08/05 07:15:47;;;;;;;20.05;14.40;;;;;;;15.64;100.00;101347.78;5017041;28;20071;-68
2023/08/05 07:18:12;;;;;;;18.02;12.93;;;;;;;15.67;100.00;101350.06;5018797;28;20056;-69
2023/08/05 07:20:40;;;;;;;19.67;13.57;;;;;;;15.65;100.00;101342.22;5018489;28;20030;-69
2023/08/05 07:23:05;;;;;;;19.92;13.13;;;;;;;15.63;100.00;101346.13;5024516;28;20408;-69
2023/08/05 07:25:31;;;;;;;20.48;13.35;;;;;;;15.66;100.00;101351.91;5026723;28;20075;-69
2023/08/05 07:27:56;;;;;;;14.50;12.10;;;;;;;15.64;100.00;101345.94;5028594;28;20025;-69
2023/08/05 07:30:21;;;;;;;17.95;12.50;;;;;;;15.71;100.00;101352.16;5024799;28;20036;-68
2023/08/05 07:32:46;;;;;;;18.48;12.60;;;;;;;15.80;100.00;101328.75;5013971;28;20159;-69
2023/08/05 07:35:13;;;;;;;17.67;12.15;;;;;;;15.91;100.00;101335.47;5026188;28;20032;-68
2023/08/05 07:37:38;;;;;;;15.00;11.05;;;;;;;15.93;100.00;101344.94;5022026;28;20091;-69
2023/08/05 07:40:05;;;;;;;12.95;10.90;;;;;;;15.95;100.00;101337.56;5025792;28;20067;-69
2023/08/05 07:42:32;;;;;;;15.05;10.65;;;;;;;15.98;99.97;101337.16;5027227;28;20045;-69
2023/08/05 07:45:00;;;;;;;17.40;10.40;;;;;;;15.96;99.31;101338.38;5025569;28;20029;-69
2023/08/05 07:47:26;;;;;;;13.85;10.35;;;;;;;16.02;99.07;101332.25;5023112;28;20087;-69
2023/08/05 07:49:51;;;;;;;12.63;10.48;;;;;;;16.09;98.74;101336.63;5020459;28;20033;-69
2023/08/05 07:52:16;;;;;;;13.10;10.35;;;;;;;16.08;98.59;101331.44;5021227;28;20422;-69
2023/08/05 07:54:42;;;;;;;12.10;9.45;;;;;;;16.08;97.79;101329.59;5023848;28;20032;-69
2023/08/05 07:57:08;;;;;;;14.30;9.82;;;;;;;16.08;97.29;101310.84;5016661;28;20032;-69
2023/08/05 07:59:34;;;;;;;12.35;9.90;;;;;;;16.12;96.81;101308.59;5022933;28;20018;-69
2023/08/05 08:01:59;;;;;;;15.05;10.43;;;;;;;16.19;96.86;101304.13;5027604;28;20091;-69
2023/08/05 08:04:25;;;;;;;12.40;9.43;;;;;;;16.32;97.38;101304.22;5020033;28;20030;-69
2023/08/05 08:06:52;;;;;;;12.38;8.88;;;;;;;16.40;97.07;101301.38;5021132;28;20021;-69
2023/08/05 08:09:17;;;;;;;11.93;8.35;;;;;;;16.42;95.58;101291.28;5020671;28;20030;-69
2023/08/05 08:11:42;;;;;;;12.60;9.60;;;;;;;16.51;95.47;101289.28;5024672;28;20651;-69
2023/08/05 08:14:07;;;;;;;11.75;9.48;;;;;;;16.62;95.48;101290.56;5020158;28;20067;-69
2023/08/05 08:16:34;;;;;;;12.05;8.80;;;;;;;16.67;95.16;101291.63;5023650;28;20474;-69
2023/08/05 08:18:59;;;;;;;14.23;9.10;;;;;;;16.69;94.22;101292.25;5028188;28;20101;-69
2023/08/05 08:21:24;;;;;;;16.25;9.20;;;;;;;16.69;93.82;101281.53;5022024;28;20113;-69
2023/08/05 08:23:49;;;;;;;11.75;8.55;;;;;;;16.67;93.06;101274.72;5024797;28;20083;-69
2023/08/05 08:26:15;;;;;;;13.98;9.00;;;;;;;16.72;92.80;101274.94;5028939;28;20048;-69
2023/08/05 08:28:40;;;;;;;12.48;8.80;;;;;;;16.79;92.91;101267.78;5026740;28;20020;-69
2023/08/05 08:31:06;;;;;;;11.75;8.43;;;;;;;16.93;92.64;101258.72;5026376;28;20023;-69
2023/08/05 08:33:31;;;;;;;11.43;7.97;;;;;;;17.17;92.84;101267.25;5024356;28;20049;-69
2023/08/05 08:35:56;;;;;;;10.60;7.85;;;;;;;17.31;92.52;101267.06;5026703;28;20071;-69
2023/08/05 08:38:25;;;;;;;14.80;7.30;;;;;;;17.40;91.46;101262.34;5027494;28;20028;-69
2023/08/05 08:40:52;;;;;;;10.52;7.80;;;;;;;17.36;89.54;101262.97;5027210;28;20029;-69
2023/08/05 08:43:18;;;;;;;8.65;7.22;;;;;;;17.22;88.37;101249.50;5026940;28;20044;-69
2023/08/05 08:45:46;;;;;;;9.70;7.75;;;;;;;17.25;88.44;101259.00;5027021;28;20026;-69
2023/08/05 08:48:11;;;;;;;12.07;7.40;;;;;;;17.36;89.08;101238.78;5020469;28;20025;-69
2023/08/05 08:50:38;;;;;;;9.15;7.50;;;;;;;17.41;88.63;101247.88;5030300;28;20044;-69
2023/08/05 08:53:06;;;;;;;8.93;7.13;;;;;;;17.40;88.13;101248.09;5018041;28;20394;-69
2023/08/05 08:55:32;;;;;;;10.02;7.65;;;;;;;17.44;88.22;101243.97;5021691;28;20534;-69
2023/08/05 08:57:57;;;;;;;10.88;7.43;;;;;;;17.47;88.36;101220.19;5015614;28;20100;-69
2023/08/05 09:00:23;;;;;;;9.80;6.65;;;;;;;17.56;87.62;101231.56;5023406;28;20033;-69
2023/08/05 09:02:48;;;;;;;8.57;5.55;;;;;;;17.58;86.66;101230.31;5025001;28;20475;-69
2023/08/05 09:05:14;;;;;;;7.05;5.35;;;;;;;17.58;86.19;101227.63;5019641;28;20102;-69
2023/08/05 09:07:39;;;;;;;8.10;4.88;;;;;;;17.55;86.00;101219.97;5024423;28;20557;-69
2023/08/05 09:10:05;;;;;;;6.28;4.13;;;;;;;17.65;85.86;101217.72;5025405;28;20413;-69
2023/08/05 09:12:31;;;;;;;5.20;4.10;;;;;;;17.91;86.65;101210.66;5025106;28;20057;-69
2023/08/05 09:14:57;;;;;;;5.90;3.60;;;;;;;18.10;86.69;101204.44;5025441;28;20064;-69
2023/08/05 09:17:22;;;;;;;4.60;3.45;;;;;;;18.24;85.30;101205.25;5022537;28;20026;-69
2023/08/05 09:19:48;;;;;;;6.45;3.33;;;;;;;18.31;84.20;101202.53;5014596;28;20117;-69
2023/08/05 09:22:13;;;;;;;4.38;3.10;;;;;;;18.44;83.79;101203.28;5021269;28;20541;-68
2023/08/05 09:24:38;;;;;;;5.53;3.40;;;;;;;18.51;82.99;101190.66;5030651;28;20075;-69
2023/08/05 09:27:04;;;;;;;8.20;3.40;;;;;;;18.48;82.52;101188.38;5027072;28;20449;-68
2023/08/05 09:29:29;;;;;;;3.00;2.60;;;;;;;18.56;81.40;101187.31;5029678;28;20033;-68
2023/08/05 09:31:59;;;;;;;5.63;3.38;;;;;;;18.52;79.94;101180.72;5024957;28;20045;-68
2023/08/05 09:34:32;;;;;;;4.53;3.17;;;;;;;18.41;79.57;101174.13;5026734;28;20029;-68
2023/08/05 09:36:57;;;;;;;3.60;3.00;;;;;;;18.32;79.48;101169.22;5022585;28;20024;-68
2023/08/05 09:39:23;;;;;;;4.30;3.13;;;;;;;18.38;80.19;101160.28;5028343;28;20018;-68
2023/08/05 09:41:51;;;;;;;4.28;3.25;;;;;;;18.41;79.54;101163.38;5022051;28;20017;-68
2023/08/05 09:44:16;;;;;;;5.17;3.77;;;;;;;18.38;78.75;101160.28;5022885;28;20079;-69
2023/08/05 09:46:42;;;;;;;6.28;3.58;;;;;;;18.29;78.31;101153.50;5025135;28;20053;-68
2023/08/05 09:49:10;;;;;;;5.13;3.80;;;;;;;18.21;78.36;101157.25;5024114;28;20022;-68
2023/08/05 09:51:36;;;;;;;5.63;3.40;;;;;;;18.24;78.93;101149.59;5027213;28;20110;-68
2023/08/05 09:54:05;;;;;;;6.60;3.95;;;;;;;18.21;78.67;101154.56;5024255;28;20022;-68
2023/08/05 09:56:30;;;;;;;7.40;4.50;;;;;;;18.23;79.17;101142.59;5016548;28;20033;-68
2023/08/05 09:58:56;;;;;;;6.18;4.03;;;;;;;18.29;79.42;101140.06;5026518;28;20414;-68
2023/08/05 10:01:21;;;;;;;5.72;4.80;;;;;;;18.31;79.84;101140.69;5028075;28;20033;-68
2023/08/05 10:03:48;;;;;;;9.20;4.68;;;;;;;18.30;79.40;101134.47;5025377;28;20026;-68
2023/08/05 10:06:15;;;;;;;9.18;5.40;;;;;;;18.31;79.69;101133.44;5018889;28;20101;-68
2023/08/05 10:08:41;;;;;;;8.13;5.45;;;;;;;18.29;79.62;101132.00;5030035;28;20079;-69
2023/08/05 10:11:07;;;;;;;7.72;5.10;;;;;;;18.19;78.97;101125.19;5025396;28;20038;-68
2023/08/05 10:13:38;;;;;;;7.50;5.00;;;;;;;18.10;78.79;101122.97;5030228;28;20452;-68
2023/08/05 10:16:06;;;;;;;12.10;5.68;;;;;;;18.11;79.55;101113.88;5019818;28;20025;-68
2023/08/05 10:18:33;;;;;;;;;;;;;;;18.15;79.95;101112.41;5022248;28;20044;-68
2023/08/05 10:21:03;;;;;;;7.10;4.97;;;;;;;18.13;79.90;101106.41;5023828;28;19909;-68
2023/08/05 10:23:32;;;;;;;6.85;5.20;;;;;;;18.20;79.73;101117.97;5027633;28;20529;-68
2023/08/05 10:26:00;;;;;;;8.00;5.13;;;;;;;18.19;80.18;101108.25;5029233;28;20036;-68
2023/08/05 10:28:25;;;;;;;6.32;4.80;;;;;;;18.16;80.34;101098.75;5022591;28;20084;-68
2023/08/05 10:30:53;;;;;;;9.45;4.88;;;;;;;18.09;79.40;101107.88;5023825;28;20558;-67
2023/08/05 10:33:19;;;;;;;9.13;4.90;;;;;;;17.99;79.84;101108.34;5020129;28;20068;-68
2023/08/05 10:35:45;;;;;;;6.78;4.60;;;;;;;17.95;79.96;101105.28;5024270;28;20080;-68
2023/08/05 10:38:19;;;;;;;9.95;5.38;;;;;;;17.92;80.91;101112.91;5019643;28;21009;-68
2023/08/05 10:40:51;;;;;;;6.50;5.18;;;;;;;17.82;80.86;101104.47;5024639;28;20540;-68
2023/08/05 10:43:34;;;;;;;6.38;5.55;;;;;;;17.67;80.78;101103.88;5024363;28;20040;-69
2023/08/05 10:46:06;;;;;;;7.43;5.65;;;;;;;17.61;81.12;101098.28;5024094;28;20564;-68
2023/08/05 10:48:35;;;;;;;10.57;5.95;;;;;;;17.66;80.64;101095.00;5015975;28;20415;-69
2023/08/05 10:51:08;;;;;;;7.63;5.72;;;;;;;17.79;81.06;101104.91;5021707;28;20036;-68
2023/08/05 10:53:34;;;;;;;7.60;6.07;;;;;;;17.78;80.46;101097.88;5019508;28;20025;-68
2023/08/05 10:55:59;;;;;;;7.30;6.20;;;;;;;17.73;80.84;101086.94;5018912;28;20485;-68
2023/08/05 10:58:29;;;;;;;7.97;6.03;;;;;;;17.73;80.74;101093.13;5023928;28;20156;-68
2023/08/05 11:00:59;;;;;;;7.85;6.30;;;;;;;17.70;80.87;101096.25;5023758;28;20032;-68
2023/08/05 11:03:30;;;;;;;7.45;6.05;;;;;;;17.73;81.03;101095.81;5024124;28;20029;-68
2023/08/05 11:05:59;;;;;;;6.60;5.80;;;;;;;17.71;80.82;101102.44;5018829;28;20034;-68
2023/08/05 11:08:26;;;;;;;8.38;6.18;;;;;;;17.74;81.47;101086.72;5022241;28;20105;-68